createdAt,value
2024-02-03T00:02:27.399Z,25.75
2024-02-03T00:04:56.085Z,25.25
2024-02-03T00:07:24.559Z,27.00
2024-02-03T00:09:53.026Z,26.75
2024-02-03T00:12:28.153Z,27.25
2024-02-03T00:14:58.155Z,27.00
2024-02-03T00:17:26.773Z,27.00
2024-02-03T00:19:55.488Z,26.50
2024-02-03T00:22:25.103Z,27.25
2024-02-03T00:24:53.613Z,27.50
2024-02-03T00:27:22.295Z,27.75
2024-02-03T00:29:50.880Z,27.00
2024-02-03T00:32:19.252Z,25.75
2024-02-03T00:34:49.003Z,30.50
2024-02-03T00:37:17.596Z,29.25
2024-02-03T00:39:46.033Z,29.75
2024-02-03T00:42:14.548Z,30.25
2024-02-03T00:44:43.109Z,28.75
2024-02-03T00:47:11.693Z,25.75
2024-02-03T00:49:40.226Z,28.00
2024-02-03T00:52:08.721Z,27.50
2024-02-03T00:54:37.223Z,27.00
2024-02-03T00:57:06.791Z,29.00
2024-02-03T00:59:35.235Z,28.50
2024-02-03T01:02:03.740Z,27.00
2024-02-03T01:04:32.222Z,29.50
2024-02-03T01:07:03.545Z,26.75
2024-02-03T01:09:32.967Z,28.00
2024-02-03T01:12:01.550Z,28.00
2024-02-03T01:14:32.392Z,28.75
2024-02-03T01:17:00.996Z,29.25
2024-02-03T01:19:29.561Z,29.00
2024-02-03T01:21:58.217Z,28.50
2024-02-03T01:24:27.381Z,30.00
2024-02-03T01:26:55.872Z,28.50
2024-02-03T01:29:25.395Z,28.00
2024-02-03T01:31:54.751Z,28.25
2024-02-03T01:34:23.504Z,27.25
2024-02-03T01:36:52.083Z,26.50
2024-02-03T01:39:20.579Z,28.75
2024-02-03T01:41:49.094Z,27.50
2024-02-03T01:44:17.557Z,28.00
2024-02-03T01:46:47.066Z,28.00
2024-02-03T01:49:15.837Z,23.50
2024-02-03T01:51:44.551Z,26.00
2024-02-03T01:56:46.620Z,27.75
2024-02-03T01:59:15.446Z,27.25
2024-02-03T02:01:44.661Z,26.25
2024-02-03T02:04:13.688Z,27.00
2024-02-03T02:06:42.509Z,27.00
2024-02-03T02:09:20.146Z,27.00
2024-02-03T02:11:48.893Z,26.00
2024-02-03T02:14:17.778Z,26.75
2024-02-03T02:16:46.540Z,27.00
2024-02-03T02:19:15.175Z,24.75
2024-02-03T02:21:44.010Z,22.50
2024-02-03T02:24:13.688Z,27.25
2024-02-03T02:26:43.273Z,28.25
2024-02-03T02:29:11.709Z,27.00
2024-02-03T02:31:40.079Z,26.00
2024-02-03T02:34:08.615Z,26.25
2024-02-03T02:36:37.175Z,26.50
2024-02-03T02:39:07.278Z,27.75
2024-02-03T02:41:36.724Z,25.75
2024-02-03T02:44:05.441Z,24.50
2024-02-03T02:46:33.923Z,23.75
2024-02-03T02:49:03.880Z,27.75
2024-02-03T02:51:32.377Z,24.00
2024-02-03T02:54:01.028Z,26.75
2024-02-03T02:56:29.619Z,25.00
2024-02-03T02:58:58.076Z,24.50
2024-02-03T03:01:26.580Z,24.75
2024-02-03T03:03:56.579Z,20.50
2024-02-03T03:06:25.067Z,25.50
2024-02-03T03:08:53.644Z,25.25
2024-02-03T03:11:22.452Z,26.25
2024-02-03T03:13:51.073Z,25.00
2024-02-03T03:16:19.548Z,25.00
2024-02-03T03:18:48.128Z,25.50
2024-02-03T03:21:16.708Z,26.00
2024-02-03T03:23:45.195Z,24.25
2024-02-03T03:26:13.593Z,25.00
2024-02-03T03:28:42.025Z,22.25
2024-02-03T03:31:10.484Z,22.75
2024-02-03T03:33:39.009Z,22.75
2024-02-03T03:36:08.025Z,20.25
2024-02-03T03:38:44.280Z,24.25
2024-02-03T03:41:12.906Z,21.75
2024-02-03T03:43:41.426Z,22.50
2024-02-03T03:46:12.822Z,23.00
2024-02-03T03:48:41.412Z,21.50
2024-02-03T03:51:09.827Z,21.00
2024-02-03T03:53:38.541Z,20.50
2024-02-03T03:56:08.453Z,21.00
2024-02-03T03:58:36.911Z,20.75
2024-02-03T04:01:05.802Z,21.50
2024-02-03T04:03:34.331Z,20.75
2024-02-03T04:06:02.745Z,20.00
2024-02-03T04:08:32.832Z,19.00
2024-02-03T04:11:01.275Z,20.25
2024-02-03T04:13:29.840Z,22.50
2024-02-03T04:15:58.269Z,22.50
2024-02-03T04:18:27.766Z,22.00
2024-02-03T04:20:56.298Z,21.50
2024-02-03T04:23:24.756Z,22.50
2024-02-03T04:25:53.188Z,23.00
2024-02-03T04:28:24.380Z,22.25
2024-02-03T04:30:52.874Z,19.75
2024-02-03T04:33:21.287Z,23.75
2024-02-03T04:35:49.692Z,24.00
2024-02-03T04:38:18.456Z,23.75
2024-02-03T04:40:46.888Z,23.00
2024-02-03T04:43:15.222Z,21.00
2024-02-03T04:45:43.843Z,19.25
2024-02-03T04:48:12.884Z,19.75
2024-02-03T04:50:41.332Z,20.50
2024-02-03T04:53:11.309Z,19.25
2024-02-03T04:55:39.621Z,20.75
2024-02-03T04:58:08.286Z,16.50
2024-02-03T05:00:36.651Z,19.50
2024-02-03T05:03:05.110Z,19.00
2024-02-03T05:05:33.504Z,17.50
2024-02-03T05:08:01.879Z,19.75
2024-02-03T05:10:30.600Z,21.75
2024-02-03T05:12:59.665Z,16.25
2024-02-03T05:15:28.161Z,14.50
2024-02-03T05:17:56.549Z,16.00
2024-02-03T05:20:24.949Z,18.00
2024-02-03T05:22:53.425Z,13.00
2024-02-03T05:25:22.215Z,18.50
2024-02-03T05:27:50.664Z,20.00
2024-02-03T05:30:19.695Z,17.50
2024-02-03T05:32:48.309Z,16.50
2024-02-03T05:35:16.861Z,17.25
2024-02-03T05:37:45.342Z,18.50
2024-02-03T05:40:14.091Z,20.50
2024-02-03T05:42:42.609Z,20.00
2024-02-03T05:45:11.561Z,20.75
2024-02-03T05:47:39.995Z,19.75
2024-02-03T05:50:09.156Z,16.00
2024-02-03T05:52:37.601Z,18.50
2024-02-03T05:55:06.448Z,16.75
2024-02-03T05:57:34.882Z,19.50
2024-02-03T06:00:03.626Z,16.75
2024-02-03T06:02:35.084Z,18.50
2024-02-03T06:05:03.513Z,18.50
2024-02-03T06:07:31.937Z,18.50
2024-02-03T06:10:00.398Z,16.00
2024-02-03T06:12:28.856Z,19.00
2024-02-03T06:14:57.260Z,15.75
2024-02-03T06:17:25.714Z,17.00
2024-02-03T06:19:55.694Z,13.25
2024-02-03T06:22:24.322Z,18.75
2024-02-03T06:24:52.959Z,18.50
2024-02-03T06:27:22.032Z,16.00
2024-02-03T06:29:50.547Z,18.00
2024-02-03T06:32:18.923Z,16.75
2024-02-03T06:34:47.515Z,17.75
2024-02-03T06:37:17.697Z,18.50
2024-02-03T06:39:46.165Z,18.00
2024-02-03T06:42:14.738Z,12.00
2024-02-03T06:44:44.787Z,14.75
2024-02-03T06:47:14.307Z,13.25
2024-02-03T06:49:42.912Z,16.00
2024-02-03T06:52:11.501Z,17.00
2024-02-03T06:54:39.903Z,13.00
2024-02-03T06:57:08.294Z,12.75
2024-02-03T06:59:36.877Z,14.50
2024-02-03T07:02:05.763Z,12.75
2024-02-03T07:04:34.271Z,12.75
2024-02-03T07:07:04.818Z,14.50
2024-02-03T07:09:33.358Z,15.00
2024-02-03T07:12:07.459Z,12.75
2024-02-03T07:14:36.785Z,14.25
2024-02-03T07:17:05.366Z,11.25
2024-02-03T07:19:34.100Z,13.25
2024-02-03T07:22:02.820Z,16.25
2024-02-03T07:24:31.845Z,17.00
2024-02-03T07:27:00.164Z,17.25
2024-02-03T07:29:28.652Z,13.50
2024-02-03T07:32:06.451Z,16.50
2024-02-03T07:34:35.115Z,17.75
2024-02-03T07:37:03.725Z,17.75
2024-02-03T07:39:32.105Z,15.75
2024-02-03T07:42:00.526Z,16.00
2024-02-03T07:44:29.019Z,16.50
2024-02-03T07:46:57.391Z,15.75
2024-02-03T07:49:26.126Z,14.75
2024-02-03T07:51:55.493Z,15.75
2024-02-03T07:54:24.667Z,15.50
2024-02-03T07:56:53.092Z,17.00
2024-02-03T07:59:22.142Z,17.00
2024-02-03T08:01:50.567Z,16.75
2024-02-03T08:04:19.257Z,16.00
2024-02-03T08:06:48.191Z,14.50
2024-02-03T08:09:16.940Z,18.25
2024-02-03T08:11:45.679Z,17.25
2024-02-03T08:14:14.146Z,15.50
2024-02-03T08:16:42.517Z,11.25
2024-02-03T08:19:11.062Z,17.50
2024-02-03T08:21:39.568Z,17.00
2024-02-03T08:24:08.446Z,15.75
2024-02-03T08:26:38.031Z,14.50
2024-02-03T08:29:07.725Z,17.00
2024-02-03T08:31:36.080Z,15.75
2024-02-03T08:34:04.765Z,18.75
2024-02-03T08:36:33.503Z,16.25
2024-02-03T08:39:01.880Z,17.00
2024-02-03T08:41:30.291Z,17.75
2024-02-03T08:43:58.748Z,16.75
2024-02-03T08:46:27.105Z,20.25
2024-02-03T08:48:55.485Z,17.25
2024-02-03T08:51:24.193Z,19.75
2024-02-03T08:53:52.608Z,18.75
2024-02-03T08:56:22.303Z,16.75
2024-02-03T08:58:50.735Z,17.50
2024-02-03T09:01:19.135Z,17.50
2024-02-03T09:03:47.683Z,18.25
2024-02-03T09:06:16.349Z,16.50
2024-02-03T09:08:44.874Z,17.50
2024-02-03T09:11:13.735Z,17.75
2024-02-03T09:13:42.101Z,18.00
2024-02-03T09:16:10.442Z,16.75
2024-02-03T09:18:38.998Z,17.50
2024-02-03T09:21:11.965Z,16.00
2024-02-03T09:23:41.906Z,16.00
2024-02-03T09:26:11.036Z,16.50
2024-02-03T09:28:39.510Z,19.00
2024-02-03T09:31:08.594Z,18.75
2024-02-03T09:33:38.436Z,18.25
2024-02-03T09:36:07.758Z,16.00
2024-02-03T09:38:36.122Z,17.25
2024-02-03T09:41:05.288Z,17.25
2024-02-03T09:43:34.626Z,15.75
2024-02-03T09:46:03.706Z,18.50
2024-02-03T09:48:32.340Z,16.75
2024-02-03T09:51:03.243Z,15.00
2024-02-03T09:53:32.192Z,17.75
2024-02-03T09:56:00.865Z,18.50
2024-02-03T09:58:29.210Z,18.25
2024-02-03T10:00:58.483Z,20.00
2024-02-03T10:03:26.915Z,19.50
2024-02-03T10:06:06.154Z,19.50
2024-02-03T10:08:34.941Z,18.75
2024-02-03T10:11:03.546Z,20.50
2024-02-03T10:13:32.088Z,20.00
2024-02-03T10:16:03.509Z,20.00
2024-02-03T10:18:36.576Z,18.50
2024-02-03T10:21:05.811Z,20.25
2024-02-03T10:23:34.344Z,20.25
2024-02-03T10:26:04.216Z,18.75
2024-02-03T10:28:32.958Z,19.75
2024-02-03T10:31:06.720Z,17.75
2024-02-03T10:33:35.512Z,18.25
2024-02-03T10:36:05.872Z,18.50
2024-02-03T10:38:34.289Z,19.50
2024-02-03T10:41:07.354Z,19.50
2024-02-03T10:43:36.929Z,21.25
2024-02-03T10:46:07.946Z,17.75
2024-02-03T10:48:44.603Z,18.25
2024-02-03T10:51:21.939Z,19.50
2024-02-03T10:53:58.176Z,20.50
2024-02-03T10:56:31.560Z,20.25
2024-02-03T10:59:01.009Z,19.75
2024-02-03T11:01:36.883Z,19.50
2024-02-03T11:04:06.913Z,20.00
2024-02-03T11:06:36.129Z,20.25
2024-02-03T11:09:22.770Z,21.25
2024-02-03T11:11:56.680Z,20.75
2024-02-03T11:14:32.881Z,21.00
2024-02-03T11:17:07.950Z,20.75
2024-02-03T11:19:38.982Z,22.00
2024-02-03T11:22:08.450Z,21.75
2024-02-03T11:24:37.154Z,22.25
2024-02-03T11:27:10.235Z,24.00
2024-02-03T11:29:39.145Z,25.00
2024-02-03T11:32:09.850Z,23.00
2024-02-03T11:34:39.809Z,22.50
2024-02-03T11:37:08.590Z,22.50
2024-02-03T11:39:38.888Z,24.00
2024-02-03T11:42:10.012Z,23.25
2024-02-03T11:44:41.687Z,23.25
2024-02-03T11:47:10.276Z,24.50
2024-02-03T11:49:39.148Z,26.00
2024-02-03T11:52:08.145Z,24.75
2024-02-03T11:54:36.532Z,21.50
2024-02-03T11:57:05.105Z,19.00
2024-02-03T11:59:34.002Z,18.00
2024-02-03T12:02:02.365Z,19.50
2024-02-03T12:04:31.731Z,20.75
2024-02-03T12:07:00.347Z,23.00
2024-02-03T12:09:29.798Z,22.00
2024-02-03T12:12:00.752Z,22.75
2024-02-03T12:14:30.463Z,22.25
2024-02-03T12:17:00.786Z,21.75
2024-02-03T12:19:30.250Z,22.50
2024-02-03T12:21:59.519Z,21.50
2024-02-03T12:24:28.105Z,22.25
2024-02-03T12:26:56.859Z,19.25
2024-02-03T12:29:27.373Z,20.50
2024-02-03T12:31:55.728Z,20.75
2024-02-03T12:34:26.621Z,22.50
2024-02-03T12:36:56.850Z,23.50
2024-02-03T12:39:25.403Z,25.00
2024-02-03T12:41:53.979Z,24.25
2024-02-03T12:44:22.408Z,23.75
2024-02-03T12:46:50.791Z,22.75
2024-02-03T12:49:19.354Z,22.50
2024-02-03T12:51:49.700Z,25.25
2024-02-03T12:54:18.354Z,24.25
2024-02-03T12:56:46.845Z,24.00
2024-02-03T12:59:15.444Z,17.00
2024-02-03T13:01:43.969Z,23.25
2024-02-03T13:04:14.251Z,22.50
2024-02-03T13:06:42.782Z,24.50
2024-02-03T13:09:13.689Z,23.75
2024-02-03T13:11:42.146Z,24.50
2024-02-03T13:14:10.607Z,24.75
2024-02-03T13:16:39.361Z,24.25
2024-02-03T13:19:07.942Z,25.25
2024-02-03T13:21:36.432Z,24.25
2024-02-03T13:24:05.408Z,24.75
2024-02-03T13:26:34.364Z,24.00
2024-02-03T13:29:02.823Z,23.75
2024-02-03T13:31:31.286Z,24.50
2024-02-03T13:33:59.773Z,24.00
2024-02-03T13:36:28.329Z,22.25
2024-02-03T13:38:56.816Z,22.50
2024-02-03T13:41:25.870Z,22.25
2024-02-03T13:43:54.307Z,21.50
2024-02-03T13:46:22.741Z,20.25
2024-02-03T13:48:51.294Z,22.25
2024-02-03T13:51:20.076Z,23.50
2024-02-03T13:53:48.558Z,21.00
2024-02-03T13:56:16.956Z,21.50
2024-02-03T13:58:45.997Z,23.00
2024-02-03T14:01:14.646Z,23.25
2024-02-03T14:03:43.341Z,21.50
2024-02-03T14:06:11.882Z,24.00
2024-02-03T14:08:40.243Z,23.75
2024-02-03T14:11:08.972Z,25.25
2024-02-03T14:13:37.519Z,21.50
2024-02-03T14:16:06.401Z,21.75
2024-02-03T14:18:36.913Z,25.50
2024-02-03T14:21:06.366Z,23.25
2024-02-03T14:23:36.713Z,23.25
2024-02-03T14:26:06.126Z,26.00
2024-02-03T14:28:35.620Z,24.50
2024-02-03T14:31:03.986Z,23.25
2024-02-03T14:33:32.640Z,23.50
2024-02-03T14:36:01.411Z,23.75
2024-02-03T14:38:29.950Z,25.25
2024-02-03T14:40:58.375Z,24.75
2024-02-03T14:43:26.717Z,25.25
2024-02-03T14:45:55.200Z,24.00
2024-02-03T14:48:23.885Z,23.25
2024-02-03T14:50:52.366Z,23.50
2024-02-03T14:53:20.920Z,25.25
2024-02-03T14:55:49.377Z,25.00
2024-02-03T14:58:17.806Z,24.25
2024-02-03T15:00:46.248Z,25.75
2024-02-03T15:03:14.916Z,25.50
2024-02-03T15:05:43.379Z,26.25
2024-02-03T15:08:12.878Z,27.25
2024-02-03T15:10:42.054Z,26.00
2024-02-03T15:13:11.108Z,26.25
2024-02-03T15:15:39.517Z,26.00
2024-02-03T15:18:08.390Z,26.25
2024-02-03T15:20:36.870Z,26.75
2024-02-03T15:23:05.845Z,24.25
2024-02-03T15:25:34.705Z,26.50
2024-02-03T15:28:03.112Z,26.75
2024-02-03T15:30:31.939Z,24.25
2024-02-03T15:33:00.572Z,27.25
2024-02-03T15:35:29.159Z,26.75
2024-02-03T15:37:57.619Z,25.75
2024-02-03T15:40:27.486Z,25.75
2024-02-03T15:42:58.561Z,26.75
2024-02-03T15:45:27.756Z,26.00
2024-02-03T15:47:56.963Z,24.25
2024-02-03T15:50:25.458Z,26.50
2024-02-03T15:52:53.834Z,26.25
2024-02-03T15:55:22.390Z,27.25
2024-02-03T15:57:50.972Z,27.25
2024-02-03T16:00:19.712Z,25.75
2024-02-03T16:02:48.250Z,27.50
2024-02-03T16:05:17.089Z,25.50
2024-02-03T16:07:45.522Z,27.00
2024-02-03T16:10:14.981Z,27.50
2024-02-03T16:12:43.915Z,26.50
2024-02-03T16:15:12.734Z,27.00
2024-02-03T16:17:41.379Z,29.25
2024-02-03T16:20:12.789Z,27.75
2024-02-03T16:22:43.699Z,27.25
2024-02-03T16:25:12.308Z,27.50
2024-02-03T16:27:43.666Z,27.50
2024-02-03T16:30:17.084Z,28.00
2024-02-03T16:32:46.112Z,27.50
2024-02-03T16:35:14.921Z,28.00
2024-02-03T16:37:43.638Z,27.25
2024-02-03T16:40:14.001Z,28.50
2024-02-03T16:42:42.473Z,29.00
2024-02-03T16:45:11.541Z,27.75
2024-02-03T16:47:40.132Z,27.00
2024-02-03T16:50:08.835Z,27.25
2024-02-03T16:52:37.290Z,28.75
2024-02-03T16:55:06.304Z,28.50
2024-02-03T16:57:35.105Z,29.00
2024-02-03T17:00:03.555Z,28.25
2024-02-03T17:02:32.081Z,30.50
2024-02-03T17:05:00.682Z,28.25
2024-02-03T17:07:29.253Z,28.00
2024-02-03T17:09:57.769Z,28.00
2024-02-03T17:12:26.297Z,28.50
2024-02-03T17:14:54.822Z,30.25
2024-02-03T17:17:23.251Z,31.25
2024-02-03T17:19:51.814Z,30.00
2024-02-03T17:22:20.257Z,29.25
2024-02-03T17:24:48.834Z,29.50
2024-02-03T17:27:17.266Z,28.75
2024-02-03T17:29:46.648Z,28.75
2024-02-03T17:32:15.192Z,28.50
2024-02-03T17:34:43.629Z,27.50
2024-02-03T17:37:12.118Z,30.00
2024-02-03T17:39:40.664Z,28.75
2024-02-03T17:42:09.098Z,28.50
2024-02-03T17:44:37.583Z,29.00
2024-02-03T17:47:06.395Z,29.50
2024-02-03T17:49:34.881Z,28.75
2024-02-03T17:52:03.336Z,29.00
2024-02-03T17:54:31.776Z,29.00
2024-02-03T17:57:00.252Z,28.00
2024-02-03T17:59:29.309Z,29.75
2024-02-03T18:01:58.035Z,29.25
2024-02-03T18:04:26.575Z,29.00
2024-02-03T18:06:55.056Z,28.00
2024-02-03T18:09:23.657Z,29.00
2024-02-03T18:11:52.027Z,29.75
2024-02-03T18:14:20.535Z,28.75
2024-02-03T18:16:49.003Z,29.00
2024-02-03T18:19:17.767Z,29.00
2024-02-03T18:21:46.324Z,29.75
2024-02-03T18:24:15.053Z,29.25
2024-02-03T18:26:43.520Z,28.25
2024-02-03T18:29:11.924Z,29.75
2024-02-03T18:31:40.423Z,30.00
2024-02-03T18:34:09.023Z,30.25
2024-02-03T18:36:37.612Z,30.00
2024-02-03T18:39:06.229Z,28.00
2024-02-03T18:41:34.626Z,29.75
2024-02-03T18:44:04.159Z,28.75
2024-02-03T18:46:33.462Z,28.75
2024-02-03T18:49:02.089Z,28.50
2024-02-03T18:51:30.533Z,30.00
2024-02-03T18:53:58.995Z,29.00
2024-02-03T18:56:28.279Z,27.00
2024-02-03T18:58:56.648Z,30.75
2024-02-03T19:01:25.848Z,28.25
2024-02-03T19:03:57.029Z,28.25
2024-02-03T19:06:27.778Z,30.25
2024-02-03T19:08:58.359Z,30.50
2024-02-03T19:11:27.054Z,29.00
2024-02-03T19:13:55.418Z,30.00
2024-02-03T19:16:23.883Z,32.25
2024-02-03T19:18:52.399Z,29.25
2024-02-03T19:21:20.895Z,26.75
2024-02-03T19:23:49.324Z,31.25
2024-02-03T19:26:19.931Z,30.75
2024-02-03T19:28:48.650Z,30.50
2024-02-03T19:31:17.513Z,27.75
2024-02-03T19:33:45.976Z,28.50
2024-02-03T19:36:14.449Z,30.00
2024-02-03T19:38:42.813Z,31.00
2024-02-03T19:41:15.778Z,30.50
2024-02-03T19:43:44.302Z,30.25
2024-02-03T19:46:12.645Z,29.75
2024-02-03T19:48:41.608Z,29.75
2024-02-03T19:51:11.611Z,32.00
2024-02-03T19:53:40.990Z,31.25
2024-02-03T19:56:09.566Z,31.50
2024-02-03T19:58:37.995Z,30.75
2024-02-03T20:01:07.715Z,30.75
2024-02-03T20:03:36.319Z,29.50
2024-02-03T20:06:04.884Z,30.00
2024-02-03T20:08:33.402Z,29.50
2024-02-03T20:11:01.894Z,30.25
2024-02-03T20:13:30.389Z,30.75
2024-02-03T20:15:58.972Z,31.50
2024-02-03T20:18:27.541Z,30.50
2024-02-03T20:20:56.135Z,30.25
2024-02-03T20:23:24.825Z,29.25
2024-02-03T20:25:53.572Z,29.50
2024-02-03T20:28:24.060Z,30.25
2024-02-03T20:30:52.967Z,30.50
2024-02-03T20:33:22.371Z,29.00
2024-02-03T20:35:51.025Z,30.50
2024-02-03T20:38:19.650Z,30.75
2024-02-03T20:40:49.567Z,30.50
2024-02-03T20:43:21.024Z,29.25
2024-02-03T20:45:52.289Z,29.25
2024-02-03T20:48:20.974Z,29.00
2024-02-03T20:50:49.903Z,29.25
2024-02-03T20:53:18.445Z,29.50
2024-02-03T20:55:47.074Z,28.75
2024-02-03T20:58:15.775Z,28.25
2024-02-03T21:00:44.584Z,30.00
2024-02-03T21:03:13.242Z,29.25
2024-02-03T21:05:41.870Z,29.25
2024-02-03T21:08:11.806Z,29.00
2024-02-03T21:10:40.440Z,29.00
2024-02-03T21:13:09.102Z,29.00
2024-02-03T21:15:40.445Z,29.50
2024-02-03T21:18:09.913Z,29.25
2024-02-03T21:20:38.763Z,29.75
2024-02-03T21:23:08.590Z,30.00
2024-02-03T21:25:37.041Z,29.00
2024-02-03T21:28:05.757Z,29.00
2024-02-03T21:30:34.181Z,30.50
2024-02-03T21:33:02.759Z,30.00
2024-02-03T21:35:31.190Z,30.00
2024-02-03T21:37:59.614Z,29.75
2024-02-03T21:40:28.130Z,29.25
2024-02-03T21:42:56.605Z,29.75
2024-02-03T21:45:25.789Z,31.50
2024-02-03T21:47:54.405Z,29.50
2024-02-03T21:50:22.929Z,29.75
2024-02-03T21:52:51.761Z,31.00
2024-02-03T21:55:20.189Z,30.00
2024-02-03T21:57:48.583Z,28.75
2024-02-03T22:00:17.464Z,28.25
2024-02-03T22:02:45.946Z,29.50
2024-02-03T22:05:14.467Z,29.75
2024-02-03T22:07:42.819Z,29.25
2024-02-03T22:10:11.444Z,30.00
2024-02-03T22:12:39.919Z,30.00
2024-02-03T22:15:08.699Z,31.25
2024-02-03T22:17:37.237Z,29.75
2024-02-03T22:20:07.427Z,29.50
2024-02-03T22:22:35.879Z,30.00
2024-02-03T22:25:05.723Z,30.50
2024-02-03T22:27:37.184Z,29.50
2024-02-03T22:30:13.522Z,27.00
2024-02-03T22:32:41.992Z,27.75
2024-02-03T22:35:11.112Z,30.00
2024-02-03T22:37:39.850Z,31.25
2024-02-03T22:40:09.856Z,30.25
2024-02-03T22:42:38.543Z,32.50
2024-02-03T22:45:07.597Z,31.50
2024-02-03T22:47:36.071Z,30.75
2024-02-03T22:50:05.626Z,28.75
2024-02-03T22:52:34.714Z,29.75
2024-02-03T22:55:03.266Z,33.00
2024-02-03T22:57:31.707Z,31.25
2024-02-03T23:00:00.294Z,30.50
2024-02-03T23:02:28.855Z,32.25
2024-02-03T23:04:57.233Z,32.00
2024-02-03T23:07:25.647Z,32.75
2024-02-03T23:09:54.545Z,33.00
2024-02-03T23:12:23.168Z,31.25
2024-02-03T23:14:51.631Z,32.25
2024-02-03T23:17:20.049Z,31.75
2024-02-03T23:19:50.683Z,31.50
2024-02-03T23:22:20.411Z,29.50
2024-02-03T23:24:49.775Z,32.00
2024-02-03T23:27:18.668Z,31.50
2024-02-03T23:29:47.050Z,31.00
2024-02-03T23:32:15.492Z,32.00
2024-02-03T23:34:44.022Z,31.75
2024-02-03T23:37:12.760Z,32.00
2024-02-03T23:39:41.269Z,31.50
2024-02-03T23:42:10.115Z,31.00
2024-02-03T23:44:38.499Z,32.50
2024-02-03T23:47:07.105Z,31.25
2024-02-03T23:49:35.773Z,31.00
2024-02-03T23:52:04.308Z,31.50
2024-02-03T23:54:33.431Z,32.25
2024-02-03T23:57:01.870Z,30.50
2024-02-03T23:59:31.311Z,31.00
